sensor_id;sensor_type;location;lat;lon;timestamp;temperature;humidity
2453;DHT22;63678;47.994;7.854;2023-06-01T00:04:27;16.90;92.60
2453;DHT22;63678;47.994;7.854;2023-06-01T00:06:59;17.00;92.50
2453;DHT22;63678;47.994;7.854;2023-06-01T00:09:33;17.00;92.30
2453;DHT22;63678;47.994;7.854;2023-06-01T00:12:06;17.00;92.50
2453;DHT22;63678;47.994;7.854;2023-06-01T00:14:39;17.00;92.50
2453;DHT22;63678;47.994;7.854;2023-06-01T00:17:11;17.10;92.40
2453;DHT22;63678;47.994;7.854;2023-06-01T00:19:44;17.00;92.60
2453;DHT22;63678;47.994;7.854;2023-06-01T00:22:17;17.00;92.80
2453;DHT22;63678;47.994;7.854;2023-06-01T00:24:50;16.90;93.00
2453;DHT22;63678;47.994;7.854;2023-06-01T00:27:22;16.90;93.10
2453;DHT22;63678;47.994;7.854;2023-06-01T00:29:54;16.80;93.80
2453;DHT22;63678;47.994;7.854;2023-06-01T00:32:26;16.70;93.90
2453;DHT22;63678;47.994;7.854;2023-06-01T00:34:59;16.70;94.20
2453;DHT22;63678;47.994;7.854;2023-06-01T00:37:31;16.70;94.30
2453;DHT22;63678;47.994;7.854;2023-06-01T00:40:04;16.50;94.20
2453;DHT22;63678;47.994;7.854;2023-06-01T00:42:36;16.50;94.50
2453;DHT22;63678;47.994;7.854;2023-06-01T00:45:08;16.50;94.70
2453;DHT22;63678;47.994;7.854;2023-06-01T00:47:42;16.60;94.30
2453;DHT22;63678;47.994;7.854;2023-06-01T00:50:15;16.60;94.30
2453;DHT22;63678;47.994;7.854;2023-06-01T00:52:51;16.50;94.60
2453;DHT22;63678;47.994;7.854;2023-06-01T00:55:24;16.50;95.00
2453;DHT22;63678;47.994;7.854;2023-06-01T00:57:57;16.50;94.80
2453;DHT22;63678;47.994;7.854;2023-06-01T01:00:29;16.60;94.70
2453;DHT22;63678;47.994;7.854;2023-06-01T01:03:04;16.60;94.70
2453;DHT22;63678;47.994;7.854;2023-06-01T01:05:40;16.50;95.50
2453;DHT22;63678;47.994;7.854;2023-06-01T01:08:24;16.30;95.70
2453;DHT22;63678;47.994;7.854;2023-06-01T01:11:17;16.40;95.40
2453;DHT22;63678;47.994;7.854;2023-06-01T01:13:58;16.20;95.70
2453;DHT22;63678;47.994;7.854;2023-06-01T01:16:42;16.10;96.10
2453;DHT22;63678;47.994;7.854;2023-06-01T01:22:32;15.90;97.20
2453;DHT22;63678;47.994;7.854;2023-06-01T01:28:57;15.80;97.80
2453;DHT22;63678;47.994;7.854;2023-06-01T01:31:33;15.70;98.00
2453;DHT22;63678;47.994;7.854;2023-06-01T01:34:08;15.40;98.90
2453;DHT22;63678;47.994;7.854;2023-06-01T01:36:42;15.50;98.90
2453;DHT22;63678;47.994;7.854;2023-06-01T01:39:14;15.50;98.80
2453;DHT22;63678;47.994;7.854;2023-06-01T01:44:20;15.50;99.20
2453;DHT22;63678;47.994;7.854;2023-06-01T01:46:58;15.20;99.90
2453;DHT22;63678;47.994;7.854;2023-06-01T01:49:48;15.20;99.90
2453;DHT22;63678;47.994;7.854;2023-06-01T01:52:38;15.10;99.90
2453;DHT22;63678;47.994;7.854;2023-06-01T01:55:12;15.00;99.90
2453;DHT22;63678;47.994;7.854;2023-06-01T01:57:48;15.10;99.90
2453;DHT22;63678;47.994;7.854;2023-06-01T02:00:25;15.00;99.90
2453;DHT22;63678;47.994;7.854;2023-06-01T02:02:59;15.20;99.90
2453;DHT22;63678;47.994;7.854;2023-06-01T02:05:32;15.00;99.90
2453;DHT22;63678;47.994;7.854;2023-06-01T02:08:05;14.90;99.90
2453;DHT22;63678;47.994;7.854;2023-06-01T02:10:39;14.70;99.90
2453;DHT22;63678;47.994;7.854;2023-06-01T02:18:18;14.70;99.90
2453;DHT22;63678;47.994;7.854;2023-06-01T02:23:24;14.80;99.90
2453;DHT22;63678;47.994;7.854;2023-06-01T02:28:29;14.90;99.90
2453;DHT22;63678;47.994;7.854;2023-06-01T02:33:35;15.10;99.90
2453;DHT22;63678;47.994;7.854;2023-06-01T02:36:07;15.10;99.90
2453;DHT22;63678;47.994;7.854;2023-06-01T02:38:43;15.30;99.90
2453;DHT22;63678;47.994;7.854;2023-06-01T02:41:16;15.30;99.90
2453;DHT22;63678;47.994;7.854;2023-06-01T02:43:49;15.40;99.90
2453;DHT22;63678;47.994;7.854;2023-06-01T02:48:57;15.60;99.90
2453;DHT22;63678;47.994;7.854;2023-06-01T02:51:30;15.50;99.90
2453;DHT22;63678;47.994;7.854;2023-06-01T02:54:16;15.50;99.90
2453;DHT22;63678;47.994;7.854;2023-06-01T02:56:49;15.30;99.90
2453;DHT22;63678;47.994;7.854;2023-06-01T02:59:34;15.20;99.90
2453;DHT22;63678;47.994;7.854;2023-06-01T03:02:08;15.20;99.90
2453;DHT22;63678;47.994;7.854;2023-06-01T03:04:40;15.00;99.90
2453;DHT22;63678;47.994;7.854;2023-06-01T03:09:51;14.80;99.90
2453;DHT22;63678;47.994;7.854;2023-06-01T03:12:59;14.70;99.90
2453;DHT22;63678;47.994;7.854;2023-06-01T03:15:32;14.50;99.90
2453;DHT22;63678;47.994;7.854;2023-06-01T03:18:06;14.50;99.90
2453;DHT22;63678;47.994;7.854;2023-06-01T03:23:11;14.60;99.90
2453;DHT22;63678;47.994;7.854;2023-06-01T03:25:44;14.60;99.90
2453;DHT22;63678;47.994;7.854;2023-06-01T03:28:17;14.50;99.90
2453;DHT22;63678;47.994;7.854;2023-06-01T03:30:49;14.50;99.90
2453;DHT22;63678;47.994;7.854;2023-06-01T03:35:56;14.50;99.90
2453;DHT22;63678;47.994;7.854;2023-06-01T03:38:29;14.50;99.90
2453;DHT22;63678;47.994;7.854;2023-06-01T03:43:35;14.80;99.90
2453;DHT22;63678;47.994;7.854;2023-06-01T03:48:41;14.90;99.90
2453;DHT22;63678;47.994;7.854;2023-06-01T03:51:14;15.10;99.90
2453;DHT22;63678;47.994;7.854;2023-06-01T03:53:47;14.90;99.90
2453;DHT22;63678;47.994;7.854;2023-06-01T03:56:21;14.80;99.90
2453;DHT22;63678;47.994;7.854;2023-06-01T03:58:57;14.80;99.90
2453;DHT22;63678;47.994;7.854;2023-06-01T04:01:31;14.70;99.90
2453;DHT22;63678;47.994;7.854;2023-06-01T04:04:05;14.70;99.90
2453;DHT22;63678;47.994;7.854;2023-06-01T04:06:40;14.70;99.90
2453;DHT22;63678;47.994;7.854;2023-06-01T04:09:19;14.70;99.90
2453;DHT22;63678;47.994;7.854;2023-06-01T04:11:53;14.70;99.90
2453;DHT22;63678;47.994;7.854;2023-06-01T04:14:26;14.70;99.90
2453;DHT22;63678;47.994;7.854;2023-06-01T04:16:59;14.70;99.90
2453;DHT22;63678;47.994;7.854;2023-06-01T04:19:34;14.50;99.90
2453;DHT22;63678;47.994;7.854;2023-06-01T04:24:44;14.40;99.90
2453;DHT22;63678;47.994;7.854;2023-06-01T04:27:16;14.40;99.90
2453;DHT22;63678;47.994;7.854;2023-06-01T04:32:22;14.50;99.90
2453;DHT22;63678;47.994;7.854;2023-06-01T04:34:56;14.60;99.90
2453;DHT22;63678;47.994;7.854;2023-06-01T04:37:29;14.70;99.90
2453;DHT22;63678;47.994;7.854;2023-06-01T04:40:02;14.70;99.90
2453;DHT22;63678;47.994;7.854;2023-06-01T04:42:41;14.80;99.90
2453;DHT22;63678;47.994;7.854;2023-06-01T04:45:17;14.80;99.90
2453;DHT22;63678;47.994;7.854;2023-06-01T04:47:52;14.80;99.90
2453;DHT22;63678;47.994;7.854;2023-06-01T04:50:47;14.70;99.90
2453;DHT22;63678;47.994;7.854;2023-06-01T04:53:20;14.70;99.90
2453;DHT22;63678;47.994;7.854;2023-06-01T04:55:53;14.80;99.90
2453;DHT22;63678;47.994;7.854;2023-06-01T04:58:26;14.90;99.90
2453;DHT22;63678;47.994;7.854;2023-06-01T05:00:58;14.90;99.90
2453;DHT22;63678;47.994;7.854;2023-06-01T05:03:32;14.90;99.90
2453;DHT22;63678;47.994;7.854;2023-06-01T05:06:05;15.00;99.90
2453;DHT22;63678;47.994;7.854;2023-06-01T05:08:41;15.00;99.90
2453;DHT22;63678;47.994;7.854;2023-06-01T05:11:14;15.00;99.90
2453;DHT22;63678;47.994;7.854;2023-06-01T05:13:47;15.20;99.90
2453;DHT22;63678;47.994;7.854;2023-06-01T05:16:21;15.20;99.90
2453;DHT22;63678;47.994;7.854;2023-06-01T05:18:55;15.30;99.90
2453;DHT22;63678;47.994;7.854;2023-06-01T05:24:01;15.40;99.90
2453;DHT22;63678;47.994;7.854;2023-06-01T05:26:34;15.40;99.90
2453;DHT22;63678;47.994;7.854;2023-06-01T05:29:07;15.50;99.90
2453;DHT22;63678;47.994;7.854;2023-06-01T05:34:15;15.50;99.90
2453;DHT22;63678;47.994;7.854;2023-06-01T05:36:48;15.70;99.90
2453;DHT22;63678;47.994;7.854;2023-06-01T05:39:23;15.80;99.90
2453;DHT22;63678;47.994;7.854;2023-06-01T05:41:59;15.80;99.90
2453;DHT22;63678;47.994;7.854;2023-06-01T05:44:39;15.80;99.90
2453;DHT22;63678;47.994;7.854;2023-06-01T05:49:46;15.80;99.90
2453;DHT22;63678;47.994;7.854;2023-06-01T05:55:15;16.00;99.90
2453;DHT22;63678;47.994;7.854;2023-06-01T05:57:49;16.00;99.90
2453;DHT22;63678;47.994;7.854;2023-06-01T06:02:56;16.10;99.90
2453;DHT22;63678;47.994;7.854;2023-06-01T06:10:36;16.50;99.90
2453;DHT22;63678;47.994;7.854;2023-06-01T06:13:10;16.70;99.90
2453;DHT22;63678;47.994;7.854;2023-06-01T06:15:43;16.80;99.90
2453;DHT22;63678;47.994;7.854;2023-06-01T06:18:58;16.90;99.90
2453;DHT22;63678;47.994;7.854;2023-06-01T06:21:30;17.00;99.90
2453;DHT22;63678;47.994;7.854;2023-06-01T06:24:03;17.10;99.90
2453;DHT22;63678;47.994;7.854;2023-06-01T06:29:11;17.30;99.90
2453;DHT22;63678;47.994;7.854;2023-06-01T06:31:44;17.40;99.90
2453;DHT22;63678;47.994;7.854;2023-06-01T06:34:17;17.60;99.90
2453;DHT22;63678;47.994;7.854;2023-06-01T06:36:51;18.80;99.90
2453;DHT22;63678;47.994;7.854;2023-06-01T06:39:24;21.90;98.40
2453;DHT22;63678;47.994;7.854;2023-06-01T06:41:58;23.90;94.50
2453;DHT22;63678;47.994;7.854;2023-06-01T06:44:31;25.10;92.40
2453;DHT22;63678;47.994;7.854;2023-06-01T06:47:04;26.40;90.90
2453;DHT22;63678;47.994;7.854;2023-06-01T06:52:10;27.10;89.10
2453;DHT22;63678;47.994;7.854;2023-06-01T06:54:43;28.10;83.90
2453;DHT22;63678;47.994;7.854;2023-06-01T06:57:16;27.20;84.30
2453;DHT22;63678;47.994;7.854;2023-06-01T06:59:49;27.20;83.60
2453;DHT22;63678;47.994;7.854;2023-06-01T07:02:23;27.30;84.00
2453;DHT22;63678;47.994;7.854;2023-06-01T07:05:00;27.50;83.20
2453;DHT22;63678;47.994;7.854;2023-06-01T07:10:07;27.20;83.10
2453;DHT22;63678;47.994;7.854;2023-06-01T07:12:41;26.90;83.80
2453;DHT22;63678;47.994;7.854;2023-06-01T07:15:14;27.90;82.00
2453;DHT22;63678;47.994;7.854;2023-06-01T07:20:20;28.40;80.60
2453;DHT22;63678;47.994;7.854;2023-06-01T07:22:53;29.10;79.30
2453;DHT22;63678;47.994;7.854;2023-06-01T07:25:26;28.90;78.60
2453;DHT22;63678;47.994;7.854;2023-06-01T07:27:59;28.80;79.30
2453;DHT22;63678;47.994;7.854;2023-06-01T07:30:37;28.20;79.50
2453;DHT22;63678;47.994;7.854;2023-06-01T07:33:09;28.80;78.70
2453;DHT22;63678;47.994;7.854;2023-06-01T07:38:15;29.60;78.30
2453;DHT22;63678;47.994;7.854;2023-06-01T07:40:49;29.60;78.80
2453;DHT22;63678;47.994;7.854;2023-06-01T07:43:23;29.40;78.10
2453;DHT22;63678;47.994;7.854;2023-06-01T07:45:55;29.70;76.90
2453;DHT22;63678;47.994;7.854;2023-06-01T07:48:29;29.60;77.20
2453;DHT22;63678;47.994;7.854;2023-06-01T07:53:43;29.50;76.70
2453;DHT22;63678;47.994;7.854;2023-06-01T07:56:16;30.10;75.70
2453;DHT22;63678;47.994;7.854;2023-06-01T07:58:49;30.90;74.80
2453;DHT22;63678;47.994;7.854;2023-06-01T08:01:25;30.40;75.40
2453;DHT22;63678;47.994;7.854;2023-06-01T08:03:59;30.10;75.90
2453;DHT22;63678;47.994;7.854;2023-06-01T08:06:34;29.50;77.20
2453;DHT22;63678;47.994;7.854;2023-06-01T08:09:07;29.00;77.10
2453;DHT22;63678;47.994;7.854;2023-06-01T08:17:13;28.70;77.80
2453;DHT22;63678;47.994;7.854;2023-06-01T08:19:46;28.40;77.30
2453;DHT22;63678;47.994;7.854;2023-06-01T08:22:20;28.20;77.30
2453;DHT22;63678;47.994;7.854;2023-06-01T08:24:53;28.30;77.50
2453;DHT22;63678;47.994;7.854;2023-06-01T08:30:00;28.80;77.30
2453;DHT22;63678;47.994;7.854;2023-06-01T08:32:34;29.40;76.90
2453;DHT22;63678;47.994;7.854;2023-06-01T08:35:09;29.30;76.70
2453;DHT22;63678;47.994;7.854;2023-06-01T08:37:47;28.80;78.10
2453;DHT22;63678;47.994;7.854;2023-06-01T08:40:20;28.80;78.40
2453;DHT22;63678;47.994;7.854;2023-06-01T08:43:19;28.70;78.10
2453;DHT22;63678;47.994;7.854;2023-06-01T08:45:55;28.70;78.20
2453;DHT22;63678;47.994;7.854;2023-06-01T08:48:31;28.90;77.90
2453;DHT22;63678;47.994;7.854;2023-06-01T08:51:07;28.70;77.80
2453;DHT22;63678;47.994;7.854;2023-06-01T08:53:41;28.80;77.70
2453;DHT22;63678;47.994;7.854;2023-06-01T08:56:16;29.30;77.20
2453;DHT22;63678;47.994;7.854;2023-06-01T08:58:50;30.70;76.00
2453;DHT22;63678;47.994;7.854;2023-06-01T09:01:24;31.00;75.00
2453;DHT22;63678;47.994;7.854;2023-06-01T09:03:57;30.30;76.00
2453;DHT22;63678;47.994;7.854;2023-06-01T09:06:32;30.10;76.60
2453;DHT22;63678;47.994;7.854;2023-06-01T09:09:05;29.10;77.10
2453;DHT22;63678;47.994;7.854;2023-06-01T09:11:43;28.90;78.60
2453;DHT22;63678;47.994;7.854;2023-06-01T09:14:23;28.50;79.70
2453;DHT22;63678;47.994;7.854;2023-06-01T09:19:45;29.00;79.60
2453;DHT22;63678;47.994;7.854;2023-06-01T09:24:57;29.10;80.60
2453;DHT22;63678;47.994;7.854;2023-06-01T09:30:23;28.80;80.20
2453;DHT22;63678;47.994;7.854;2023-06-01T09:33:13;28.90;79.90
2453;DHT22;63678;47.994;7.854;2023-06-01T09:35:49;28.70;79.60
2453;DHT22;63678;47.994;7.854;2023-06-01T09:38:24;28.70;80.10
2453;DHT22;63678;47.994;7.854;2023-06-01T09:41:00;28.90;79.50
2453;DHT22;63678;47.994;7.854;2023-06-01T09:43:34;29.10;80.10
2453;DHT22;63678;47.994;7.854;2023-06-01T09:46:11;29.20;79.50
2453;DHT22;63678;47.994;7.854;2023-06-01T09:48:46;28.90;79.20
2453;DHT22;63678;47.994;7.854;2023-06-01T09:51:23;28.90;80.30
2453;DHT22;63678;47.994;7.854;2023-06-01T09:54:01;28.90;80.10
2453;DHT22;63678;47.994;7.854;2023-06-01T09:56:43;28.50;80.90
2453;DHT22;63678;47.994;7.854;2023-06-01T09:59:16;28.70;81.00
2453;DHT22;63678;47.994;7.854;2023-06-01T10:01:53;28.80;80.30
2453;DHT22;63678;47.994;7.854;2023-06-01T10:04:28;29.00;80.40
2453;DHT22;63678;47.994;7.854;2023-06-01T10:07:00;29.50;79.90
2453;DHT22;63678;47.994;7.854;2023-06-01T10:09:35;29.10;79.80
2453;DHT22;63678;47.994;7.854;2023-06-01T10:12:10;29.80;79.30
2453;DHT22;63678;47.994;7.854;2023-06-01T10:14:43;29.80;79.30
2453;DHT22;63678;47.994;7.854;2023-06-01T10:17:16;29.70;78.90
2453;DHT22;63678;47.994;7.854;2023-06-01T10:19:49;29.70;78.60
2453;DHT22;63678;47.994;7.854;2023-06-01T10:22:22;29.10;80.10
2453;DHT22;63678;47.994;7.854;2023-06-01T10:24:56;29.40;79.90
2453;DHT22;63678;47.994;7.854;2023-06-01T10:27:39;29.20;79.80
2453;DHT22;63678;47.994;7.854;2023-06-01T10:30:16;29.40;79.50
2453;DHT22;63678;47.994;7.854;2023-06-01T10:32:49;29.20;79.80
2453;DHT22;63678;47.994;7.854;2023-06-01T10:40:42;29.10;80.60
2453;DHT22;63678;47.994;7.854;2023-06-01T10:43:45;29.50;80.20
2453;DHT22;63678;47.994;7.854;2023-06-01T10:46:37;29.30;80.00
2453;DHT22;63678;47.994;7.854;2023-06-01T10:49:16;29.40;80.50
2453;DHT22;63678;47.994;7.854;2023-06-01T10:51:48;29.30;80.50
2453;DHT22;63678;47.994;7.854;2023-06-01T10:54:26;29.10;81.50
2453;DHT22;63678;47.994;7.854;2023-06-01T10:57:19;29.20;81.00
2453;DHT22;63678;47.994;7.854;2023-06-01T11:13:31;29.10;81.00
2453;DHT22;63678;47.994;7.854;2023-06-01T11:18:43;29.10;81.70
2453;DHT22;63678;47.994;7.854;2023-06-01T11:21:22;29.20;80.20
2453;DHT22;63678;47.994;7.854;2023-06-01T11:23:57;29.10;81.00
2453;DHT22;63678;47.994;7.854;2023-06-01T11:26:39;28.90;80.40
2453;DHT22;63678;47.994;7.854;2023-06-01T11:29:19;28.90;80.70
2453;DHT22;63678;47.994;7.854;2023-06-01T11:31:56;29.10;80.20
2453;DHT22;63678;47.994;7.854;2023-06-01T11:34:39;28.90;80.60
2453;DHT22;63678;47.994;7.854;2023-06-01T11:37:15;28.90;80.60
2453;DHT22;63678;47.994;7.854;2023-06-01T11:39:48;29.20;81.10
2453;DHT22;63678;47.994;7.854;2023-06-01T11:42:22;29.80;80.20
2453;DHT22;63678;47.994;7.854;2023-06-01T11:44:57;29.80;79.80
2453;DHT22;63678;47.994;7.854;2023-06-01T11:47:30;29.70;79.80
2453;DHT22;63678;47.994;7.854;2023-06-01T11:50:03;29.50;80.50
2453;DHT22;63678;47.994;7.854;2023-06-01T11:55:10;29.40;80.00
2453;DHT22;63678;47.994;7.854;2023-06-01T12:00:15;29.80;79.10
2453;DHT22;63678;47.994;7.854;2023-06-01T12:02:48;29.50;79.40
2453;DHT22;63678;47.994;7.854;2023-06-01T12:05:21;29.70;79.90
2453;DHT22;63678;47.994;7.854;2023-06-01T12:07:53;30.00;79.20
2453;DHT22;63678;47.994;7.854;2023-06-01T12:10:27;29.80;78.90
2453;DHT22;63678;47.994;7.854;2023-06-01T12:13:00;29.60;79.20
2453;DHT22;63678;47.994;7.854;2023-06-01T12:15:32;29.20;79.40
2453;DHT22;63678;47.994;7.854;2023-06-01T12:18:04;29.40;79.60
2453;DHT22;63678;47.994;7.854;2023-06-01T12:20:42;29.40;79.10
2453;DHT22;63678;47.994;7.854;2023-06-01T12:23:17;29.60;79.00
2453;DHT22;63678;47.994;7.854;2023-06-01T12:25:55;29.40;78.30
2453;DHT22;63678;47.994;7.854;2023-06-01T12:28:47;29.60;78.40
2453;DHT22;63678;47.994;7.854;2023-06-01T12:31:28;29.50;78.90
2453;DHT22;63678;47.994;7.854;2023-06-01T12:34:01;29.40;77.90
2453;DHT22;63678;47.994;7.854;2023-06-01T12:36:35;29.40;77.90
2453;DHT22;63678;47.994;7.854;2023-06-01T12:41:47;29.50;77.90
2453;DHT22;63678;47.994;7.854;2023-06-01T12:44:20;29.40;78.20
2453;DHT22;63678;47.994;7.854;2023-06-01T12:46:57;29.40;77.70
2453;DHT22;63678;47.994;7.854;2023-06-01T12:49:30;29.40;77.00
2453;DHT22;63678;47.994;7.854;2023-06-01T12:52:03;29.40;77.90
2453;DHT22;63678;47.994;7.854;2023-06-01T12:54:37;29.50;77.20
2453;DHT22;63678;47.994;7.854;2023-06-01T12:57:12;29.20;77.30
2453;DHT22;63678;47.994;7.854;2023-06-01T12:59:45;29.20;77.90
2453;DHT22;63678;47.994;7.854;2023-06-01T13:02:18;29.30;77.60
2453;DHT22;63678;47.994;7.854;2023-06-01T13:04:50;29.50;77.80
2453;DHT22;63678;47.994;7.854;2023-06-01T13:07:22;29.50;77.20
2453;DHT22;63678;47.994;7.854;2023-06-01T13:09:55;29.60;77.20
2453;DHT22;63678;47.994;7.854;2023-06-01T13:12:29;29.30;77.50
2453;DHT22;63678;47.994;7.854;2023-06-01T13:15:03;29.30;77.40
2453;DHT22;63678;47.994;7.854;2023-06-01T13:17:36;29.20;77.20
2453;DHT22;63678;47.994;7.854;2023-06-01T13:20:08;29.20;76.70
2453;DHT22;63678;47.994;7.854;2023-06-01T13:22:43;29.20;76.70
2453;DHT22;63678;47.994;7.854;2023-06-01T13:25:15;29.10;76.80
2453;DHT22;63678;47.994;7.854;2023-06-01T13:27:50;29.20;77.70
2453;DHT22;63678;47.994;7.854;2023-06-01T13:30:25;29.50;76.90
2453;DHT22;63678;47.994;7.854;2023-06-01T13:32:59;29.70;76.60
2453;DHT22;63678;47.994;7.854;2023-06-01T13:35:32;29.90;76.80
2453;DHT22;63678;47.994;7.854;2023-06-01T13:38:04;29.80;76.60
2453;DHT22;63678;47.994;7.854;2023-06-01T13:40:37;29.80;76.50
2453;DHT22;63678;47.994;7.854;2023-06-01T13:45:42;29.60;76.20
2453;DHT22;63678;47.994;7.854;2023-06-01T13:48:14;29.60;76.10
2453;DHT22;63678;47.994;7.854;2023-06-01T13:50:53;29.60;76.50
2453;DHT22;63678;47.994;7.854;2023-06-01T13:53:25;29.60;76.50
2453;DHT22;63678;47.994;7.854;2023-06-01T13:55:59;29.40;76.30
2453;DHT22;63678;47.994;7.854;2023-06-01T13:58:32;29.30;76.60
2453;DHT22;63678;47.994;7.854;2023-06-01T14:01:06;29.30;76.20
2453;DHT22;63678;47.994;7.854;2023-06-01T14:03:38;29.30;76.40
2453;DHT22;63678;47.994;7.854;2023-06-01T14:06:11;29.20;76.10
2453;DHT22;63678;47.994;7.854;2023-06-01T14:08:43;29.20;76.50
2453;DHT22;63678;47.994;7.854;2023-06-01T14:13:48;29.40;75.70
2453;DHT22;63678;47.994;7.854;2023-06-01T14:18:53;29.30;76.40
2453;DHT22;63678;47.994;7.854;2023-06-01T14:21:26;29.20;75.90
2453;DHT22;63678;47.994;7.854;2023-06-01T14:23:58;29.20;76.40
2453;DHT22;63678;47.994;7.854;2023-06-01T14:26:31;29.20;75.60
2453;DHT22;63678;47.994;7.854;2023-06-01T14:29:03;29.10;76.00
2453;DHT22;63678;47.994;7.854;2023-06-01T14:31:35;29.20;76.30
2453;DHT22;63678;47.994;7.854;2023-06-01T14:34:09;29.30;75.60
2453;DHT22;63678;47.994;7.854;2023-06-01T14:36:42;29.20;76.10
2453;DHT22;63678;47.994;7.854;2023-06-01T14:39:18;29.20;75.90
2453;DHT22;63678;47.994;7.854;2023-06-01T14:41:51;29.10;75.90
2453;DHT22;63678;47.994;7.854;2023-06-01T14:44:23;29.00;75.90
2453;DHT22;63678;47.994;7.854;2023-06-01T14:49:31;29.10;76.00
2453;DHT22;63678;47.994;7.854;2023-06-01T14:52:18;29.20;76.20
2453;DHT22;63678;47.994;7.854;2023-06-01T14:54:50;29.00;75.50
2453;DHT22;63678;47.994;7.854;2023-06-01T14:57:23;29.00;76.10
2453;DHT22;63678;47.994;7.854;2023-06-01T14:59:56;29.00;76.30
2453;DHT22;63678;47.994;7.854;2023-06-01T15:07:46;28.80;76.30
2453;DHT22;63678;47.994;7.854;2023-06-01T15:10:18;28.90;76.10
2453;DHT22;63678;47.994;7.854;2023-06-01T15:12:50;28.90;76.20
2453;DHT22;63678;47.994;7.854;2023-06-01T15:15:23;28.90;75.90
2453;DHT22;63678;47.994;7.854;2023-06-01T15:17:56;28.90;75.80
2453;DHT22;63678;47.994;7.854;2023-06-01T15:23:02;28.90;75.40
2453;DHT22;63678;47.994;7.854;2023-06-01T15:25:35;28.90;75.50
2453;DHT22;63678;47.994;7.854;2023-06-01T15:28:07;28.80;75.80
2453;DHT22;63678;47.994;7.854;2023-06-01T15:30:39;28.90;75.90
2453;DHT22;63678;47.994;7.854;2023-06-01T15:33:12;28.60;75.70
2453;DHT22;63678;47.994;7.854;2023-06-01T15:35:47;28.60;76.10
2453;DHT22;63678;47.994;7.854;2023-06-01T15:38:19;28.60;76.00
2453;DHT22;63678;47.994;7.854;2023-06-01T15:40:54;28.60;76.40
2453;DHT22;63678;47.994;7.854;2023-06-01T15:43:26;28.40;76.50
2453;DHT22;63678;47.994;7.854;2023-06-01T15:45:58;28.30;76.50
2453;DHT22;63678;47.994;7.854;2023-06-01T15:48:31;28.10;77.10
2453;DHT22;63678;47.994;7.854;2023-06-01T15:51:03;28.20;77.40
2453;DHT22;63678;47.994;7.854;2023-06-01T15:53:36;28.40;77.10
2453;DHT22;63678;47.994;7.854;2023-06-01T15:56:08;28.10;76.90
2453;DHT22;63678;47.994;7.854;2023-06-01T15:58:40;28.40;77.20
2453;DHT22;63678;47.994;7.854;2023-06-01T16:06:36;28.20;77.60
2453;DHT22;63678;47.994;7.854;2023-06-01T16:11:41;28.30;77.70
2453;DHT22;63678;47.994;7.854;2023-06-01T16:14:13;28.20;77.70
2453;DHT22;63678;47.994;7.854;2023-06-01T16:19:20;28.10;77.40
2453;DHT22;63678;47.994;7.854;2023-06-01T16:21:53;28.00;77.80
2453;DHT22;63678;47.994;7.854;2023-06-01T16:24:29;27.90;77.70
2453;DHT22;63678;47.994;7.854;2023-06-01T16:27:02;27.90;78.30
2453;DHT22;63678;47.994;7.854;2023-06-01T16:29:34;27.80;78.00
2453;DHT22;63678;47.994;7.854;2023-06-01T16:32:06;27.70;77.90
2453;DHT22;63678;47.994;7.854;2023-06-01T16:34:39;27.70;78.40
2453;DHT22;63678;47.994;7.854;2023-06-01T16:39:44;27.70;78.60
2453;DHT22;63678;47.994;7.854;2023-06-01T16:42:16;27.80;79.00
2453;DHT22;63678;47.994;7.854;2023-06-01T16:44:48;27.80;78.90
2453;DHT22;63678;47.994;7.854;2023-06-01T16:49:58;27.40;78.90
2453;DHT22;63678;47.994;7.854;2023-06-01T16:55:05;27.40;79.00
2453;DHT22;63678;47.994;7.854;2023-06-01T16:57:38;27.50;78.90
2453;DHT22;63678;47.994;7.854;2023-06-01T17:00:14;27.40;79.50
2453;DHT22;63678;47.994;7.854;2023-06-01T17:02:48;27.30;79.70
2453;DHT22;63678;47.994;7.854;2023-06-01T17:05:20;27.30;79.60
2453;DHT22;63678;47.994;7.854;2023-06-01T17:10:25;27.10;79.70
2453;DHT22;63678;47.994;7.854;2023-06-01T17:12:58;27.10;79.20
2453;DHT22;63678;47.994;7.854;2023-06-01T17:15:30;27.00;77.90
2453;DHT22;63678;47.994;7.854;2023-06-01T17:18:03;26.90;77.90
2453;DHT22;63678;47.994;7.854;2023-06-01T17:20:36;26.90;78.20
2453;DHT22;63678;47.994;7.854;2023-06-01T17:23:09;26.80;78.00
2453;DHT22;63678;47.994;7.854;2023-06-01T17:25:41;26.70;77.70
2453;DHT22;63678;47.994;7.854;2023-06-01T17:30:46;26.60;76.90
2453;DHT22;63678;47.994;7.854;2023-06-01T17:33:19;26.50;77.10
2453;DHT22;63678;47.994;7.854;2023-06-01T17:38:24;26.50;77.40
2453;DHT22;63678;47.994;7.854;2023-06-01T17:43:31;26.50;77.20
2453;DHT22;63678;47.994;7.854;2023-06-01T17:46:06;26.50;77.10
2453;DHT22;63678;47.994;7.854;2023-06-01T17:51:14;26.50;76.90
2453;DHT22;63678;47.994;7.854;2023-06-01T17:53:46;26.40;76.90
2453;DHT22;63678;47.994;7.854;2023-06-01T17:56:20;26.30;76.80
2453;DHT22;63678;47.994;7.854;2023-06-01T18:01:48;26.10;76.60
2453;DHT22;63678;47.994;7.854;2023-06-01T18:07:12;26.00;77.40
2453;DHT22;63678;47.994;7.854;2023-06-01T18:09:45;26.10;77.30
2453;DHT22;63678;47.994;7.854;2023-06-01T18:12:20;26.00;77.40
2453;DHT22;63678;47.994;7.854;2023-06-01T18:15:14;26.00;77.50
2453;DHT22;63678;47.994;7.854;2023-06-01T18:17:47;26.00;77.50
2453;DHT22;63678;47.994;7.854;2023-06-01T18:20:21;25.90;77.60
2453;DHT22;63678;47.994;7.854;2023-06-01T18:22:53;25.90;77.70
2453;DHT22;63678;47.994;7.854;2023-06-01T18:25:25;25.80;77.80
2453;DHT22;63678;47.994;7.854;2023-06-01T18:27:58;25.80;78.00
2453;DHT22;63678;47.994;7.854;2023-06-01T18:30:31;25.60;78.10
2453;DHT22;63678;47.994;7.854;2023-06-01T18:33:03;25.70;78.20
2453;DHT22;63678;47.994;7.854;2023-06-01T18:35:35;25.60;78.10
2453;DHT22;63678;47.994;7.854;2023-06-01T18:38:08;25.60;78.20
2453;DHT22;63678;47.994;7.854;2023-06-01T18:40:40;25.40;78.20
2453;DHT22;63678;47.994;7.854;2023-06-01T18:45:46;25.40;79.00
2453;DHT22;63678;47.994;7.854;2023-06-01T18:48:22;25.40;79.20
2453;DHT22;63678;47.994;7.854;2023-06-01T18:51:14;25.30;79.40
2453;DHT22;63678;47.994;7.854;2023-06-01T18:53:47;25.30;79.50
2453;DHT22;63678;47.994;7.854;2023-06-01T18:58:53;25.10;80.40
2453;DHT22;63678;47.994;7.854;2023-06-01T19:01:25;25.00;80.90
2453;DHT22;63678;47.994;7.854;2023-06-01T19:03:58;25.00;81.40
2453;DHT22;63678;47.994;7.854;2023-06-01T19:06:33;24.80;81.90
2453;DHT22;63678;47.994;7.854;2023-06-01T19:09:06;24.60;81.90
2453;DHT22;63678;47.994;7.854;2023-06-01T19:11:40;24.50;82.40
2453;DHT22;63678;47.994;7.854;2023-06-01T19:17:07;24.20;80.40
2453;DHT22;63678;47.994;7.854;2023-06-01T19:19:43;24.10;80.70
2453;DHT22;63678;47.994;7.854;2023-06-01T19:22:15;24.10;81.30
2453;DHT22;63678;47.994;7.854;2023-06-01T19:24:48;24.00;80.50
2453;DHT22;63678;47.994;7.854;2023-06-01T19:27:24;24.00;80.30
2453;DHT22;63678;47.994;7.854;2023-06-01T19:29:56;24.00;81.50
2453;DHT22;63678;47.994;7.854;2023-06-01T19:32:29;23.90;82.40
2453;DHT22;63678;47.994;7.854;2023-06-01T19:40:10;23.60;83.20
2453;DHT22;63678;47.994;7.854;2023-06-01T19:42:48;23.50;83.50
2453;DHT22;63678;47.994;7.854;2023-06-01T19:45:22;23.40;83.70